Songa Opal — V7RO5 — position and weather

sailwx.info

Track history (hours):
 
Tides and Currents Weather Stations Pressure Air Temp Water Temp Dewpoint Dewpoint Depression Visibility Wind Speed Wind Dir Waves Ship Positions

Songa Opal

Last reported at 2015-Jan-06 23:09 UTC. Time now 2015-Jan-26 12:31 UTC.
Position N 52°24' E 004°49'.
Warning: this ship's position is 19 days out of date.

Length 144 m; draft 8 m.

Type: Ship (hazmat cat A). MMSI: 538003550.

Date/timePositionNaut miles runAvg speedWind from/ knotsBaromVisibWave heightAir tempDewpointWater temp
2015-Jan-06 23:09N 52°24' E 004°49'  
2015-Jan-04 11:06N 29°58' W 090°17'7 0.1
2015-Jan-02 07:31N 29°57' W 090°08'6 6.8
2015-Jan-02 06:33N 29°57' W 090°01'6 4.3
2015-Jan-02 05:15N 29°52' W 089°59'259 7.4
2014-Dec-31 18:18N 29°22' W 094°55'0 0.0
2014-Dec-30 17:05N 29°22' W 094°55'1 1.3
2014-Dec-30 16:30N 29°22' W 094°54'10 8.1
2014-Dec-30 15:18N 29°21' W 094°43'8 1.3
2014-Dec-30 09:11N 29°20' W 094°34'  
Track history (hours):
 
Tides and Currents Weather Stations Pressure Air Temp Water Temp Dewpoint Dewpoint Depression Visibility Wind Speed Wind Dir Waves Ship Positions

Songa Opal

Last reported at 2015-Jan-06 23:09 UTC. Time now 2015-Jan-26 12:31 UTC.
Position N 52°24' E 004°49'.
Warning: this ship's position is 19 days out of date.

Length 144 m; draft 8 m.

Type: Ship (hazmat cat A). MMSI: 538003550.

Date/timePositionNaut miles runAvg speedWind from/ knotsBaromVisibWave heightAir tempDewpointWater temp
2015-Jan-06 23:09N 52°24' E 004°49'  
2015-Jan-04 11:06N 29°58' W 090°17'7 0.1
2015-Jan-02 07:31N 29°57' W 090°08'6 6.8
2015-Jan-02 06:33N 29°57' W 090°01'6 4.3
2015-Jan-02 05:15N 29°52' W 089°59'259 7.4
2014-Dec-31 18:18N 29°22' W 094°55'0 0.0
2014-Dec-30 17:05N 29°22' W 094°55'1 1.3
2014-Dec-30 16:30N 29°22' W 094°54'10 8.1
2014-Dec-30 15:18N 29°21' W 094°43'8 1.3
2014-Dec-30 09:11N 29°20' W 094°34'  

Dump ship's entire track history